sensor_id;sensor_type;location;lat;lon;timestamp;pressure;altitude;pressure_sealevel;temperature;humidity
70206;BME280;57593;55.896;37.396;2022-12-07T00:00:01;100492.72;;;-5.58;60.90
70206;BME280;57593;55.896;37.396;2022-12-07T00:00:31;100487.38;;;-5.56;61.15
70206;BME280;57593;55.896;37.396;2022-12-07T00:01:10;100483.09;;;-5.36;61.28
70206;BME280;57593;55.896;37.396;2022-12-07T00:01:42;100482.88;;;-5.34;60.92
70206;BME280;57593;55.896;37.396;2022-12-07T00:02:13;100488.44;;;-5.37;60.80
70206;BME280;57593;55.896;37.396;2022-12-07T00:02:44;100493.97;;;-5.40;60.42
70206;BME280;57593;55.896;37.396;2022-12-07T00:03:14;100491.78;;;-5.44;60.11
70206;BME280;57593;55.896;37.396;2022-12-07T00:03:46;100494.38;;;-5.37;60.10
70206;BME280;57593;55.896;37.396;2022-12-07T00:04:18;100497.72;;;-5.50;60.01
70206;BME280;57593;55.896;37.396;2022-12-07T00:04:49;100492.19;;;-5.47;59.39
70206;BME280;57593;55.896;37.396;2022-12-07T00:05:20;100491.97;;;-5.45;59.43
70206;BME280;57593;55.896;37.396;2022-12-07T00:05:50;100489.56;;;-5.53;59.63
70206;BME280;57593;55.896;37.396;2022-12-07T00:06:21;100492.75;;;-5.51;59.43
70206;BME280;57593;55.896;37.396;2022-12-07T00:06:52;100487.03;;;-5.47;59.31
70206;BME280;57593;55.896;37.396;2022-12-07T00:07:23;100485.63;;;-5.49;59.37
70206;BME280;57593;55.896;37.396;2022-12-07T00:07:54;100480.66;;;-5.57;59.48
70206;BME280;57593;55.896;37.396;2022-12-07T00:08:24;100494.13;;;-5.62;59.19
70206;BME280;57593;55.896;37.396;2022-12-07T00:08:55;100488.16;;;-5.63;58.94
70206;BME280;57593;55.896;37.396;2022-12-07T00:09:25;100491.94;;;-5.58;58.76
70206;BME280;57593;55.896;37.396;2022-12-07T00:09:56;100499.09;;;-5.54;58.93
70206;BME280;57593;55.896;37.396;2022-12-07T00:10:27;100496.31;;;-5.52;58.86
70206;BME280;57593;55.896;37.396;2022-12-07T00:11:11;100493.34;;;-5.56;59.09
70206;BME280;57593;55.896;37.396;2022-12-07T00:11:42;100490.97;;;-5.51;59.14
70206;BME280;57593;55.896;37.396;2022-12-07T00:12:13;100484.66;;;-5.42;59.17
70206;BME280;57593;55.896;37.396;2022-12-07T00:12:44;100483.44;;;-5.59;59.25
70206;BME280;57593;55.896;37.396;2022-12-07T00:13:14;100487.78;;;-5.66;59.61
70206;BME280;57593;55.896;37.396;2022-12-07T00:13:46;100490.56;;;-5.54;59.46
70206;BME280;57593;55.896;37.396;2022-12-07T00:14:17;100484.81;;;-5.56;59.36
70206;BME280;57593;55.896;37.396;2022-12-07T00:14:48;100483.84;;;-5.49;59.34
70206;BME280;57593;55.896;37.396;2022-12-07T00:15:19;100487.63;;;-5.51;59.39
70206;BME280;57593;55.896;37.396;2022-12-07T00:15:49;100486.41;;;-5.49;59.33
70206;BME280;57593;55.896;37.396;2022-12-07T00:16:22;100493.75;;;-5.46;59.34
70206;BME280;57593;55.896;37.396;2022-12-07T00:16:53;100490.19;;;-5.38;59.28
70206;BME280;57593;55.896;37.396;2022-12-07T00:17:24;100491.16;;;-5.46;59.20
70206;BME280;57593;55.896;37.396;2022-12-07T00:17:54;100496.53;;;-5.40;59.04
70206;BME280;57593;55.896;37.396;2022-12-07T00:18:25;100487.81;;;-5.39;58.75
70206;BME280;57593;55.896;37.396;2022-12-07T00:18:55;100492.97;;;-5.39;58.86
70206;BME280;57593;55.896;37.396;2022-12-07T00:19:26;100486.84;;;-5.45;58.91
70206;BME280;57593;55.896;37.396;2022-12-07T00:19:57;100486.06;;;-5.39;58.95
70206;BME280;57593;55.896;37.396;2022-12-07T00:20:27;100483.63;;;-5.47;59.15
70206;BME280;57593;55.896;37.396;2022-12-07T00:21:06;100479.88;;;-5.38;59.60
70206;BME280;57593;55.896;37.396;2022-12-07T00:21:37;100484.44;;;-5.47;59.62
70206;BME280;57593;55.896;37.396;2022-12-07T00:22:08;100492.56;;;-5.36;59.88
70206;BME280;57593;55.896;37.396;2022-12-07T00:22:38;100497.13;;;-5.38;59.32
70206;BME280;57593;55.896;37.396;2022-12-07T00:23:09;100483.66;;;-5.34;59.00
70206;BME280;57593;55.896;37.396;2022-12-07T00:23:41;100490.16;;;-5.58;59.11
70206;BME280;57593;55.896;37.396;2022-12-07T00:24:12;100494.56;;;-5.45;59.07
70206;BME280;57593;55.896;37.396;2022-12-07T00:24:43;100485.22;;;-5.46;59.42
70206;BME280;57593;55.896;37.396;2022-12-07T00:25:13;100478.91;;;-5.44;59.43
70206;BME280;57593;55.896;37.396;2022-12-07T00:25:44;100486.84;;;-5.45;58.97
70206;BME280;57593;55.896;37.396;2022-12-07T00:26:18;100485.03;;;-5.45;58.95
70206;BME280;57593;55.896;37.396;2022-12-07T00:26:49;100480.69;;;-5.37;59.34
70206;BME280;57593;55.896;37.396;2022-12-07T00:27:19;100483.06;;;-5.43;59.30
70206;BME280;57593;55.896;37.396;2022-12-07T00:27:52;100485.03;;;-5.38;59.61
70206;BME280;57593;55.896;37.396;2022-12-07T00:28:22;100493.00;;;-5.33;59.38
70206;BME280;57593;55.896;37.396;2022-12-07T00:28:55;100482.28;;;-5.43;59.04
70206;BME280;57593;55.896;37.396;2022-12-07T00:29:26;100482.47;;;-5.38;59.09
70206;BME280;57593;55.896;37.396;2022-12-07T00:29:56;100494.94;;;-5.42;59.08
70206;BME280;57593;55.896;37.396;2022-12-07T00:30:27;100494.16;;;-5.35;58.94
70206;BME280;57593;55.896;37.396;2022-12-07T00:31:11;100489.81;;;-5.48;58.98
70206;BME280;57593;55.896;37.396;2022-12-07T00:31:42;100482.25;;;-5.56;58.65
70206;BME280;57593;55.896;37.396;2022-12-07T00:32:13;100475.72;;;-5.59;58.58
70206;BME280;57593;55.896;37.396;2022-12-07T00:32:44;100481.66;;;-5.52;58.49
70206;BME280;57593;55.896;37.396;2022-12-07T00:33:14;100487.63;;;-5.51;58.59
70206;BME280;57593;55.896;37.396;2022-12-07T00:33:45;100480.47;;;-5.56;58.80
70206;BME280;57593;55.896;37.396;2022-12-07T00:34:19;100492.13;;;-5.60;58.54
70206;BME280;57593;55.896;37.396;2022-12-07T00:34:50;100487.19;;;-5.62;58.43
70206;BME280;57593;55.896;37.396;2022-12-07T00:35:20;100487.56;;;-5.65;58.40
70206;BME280;57593;55.896;37.396;2022-12-07T00:35:58;100478.69;;;-5.62;58.73
70206;BME280;57593;55.896;37.396;2022-12-07T00:36:29;100476.09;;;-5.62;58.66
70206;BME280;57593;55.896;37.396;2022-12-07T00:37:00;100482.03;;;-5.68;58.67
70206;BME280;57593;55.896;37.396;2022-12-07T00:37:30;100483.59;;;-5.74;58.72
70206;BME280;57593;55.896;37.396;2022-12-07T00:38:01;100476.47;;;-5.72;58.86
70206;BME280;57593;55.896;37.396;2022-12-07T00:38:33;100490.94;;;-5.64;58.99
70206;BME280;57593;55.896;37.396;2022-12-07T00:39:04;100481.41;;;-5.70;58.86
70206;BME280;57593;55.896;37.396;2022-12-07T00:39:34;100489.72;;;-5.75;58.75
70206;BME280;57593;55.896;37.396;2022-12-07T00:40:05;100479.03;;;-5.72;58.51
70206;BME280;57593;55.896;37.396;2022-12-07T00:40:36;100482.38;;;-5.78;58.23
70206;BME280;57593;55.896;37.396;2022-12-07T00:41:11;100485.19;;;-5.80;58.25
70206;BME280;57593;55.896;37.396;2022-12-07T00:41:42;100486.53;;;-5.84;58.40
70206;BME280;57593;55.896;37.396;2022-12-07T00:42:12;100480.97;;;-5.94;58.37
70206;BME280;57593;55.896;37.396;2022-12-07T00:42:43;100486.91;;;-5.93;58.67
70206;BME280;57593;55.896;37.396;2022-12-07T00:43:13;100484.94;;;-5.85;59.01
70206;BME280;57593;55.896;37.396;2022-12-07T00:43:45;100484.94;;;-5.85;59.18
70206;BME280;57593;55.896;37.396;2022-12-07T00:44:16;100487.53;;;-5.78;59.42
70206;BME280;57593;55.896;37.396;2022-12-07T00:44:47;100483.78;;;-5.82;59.44
70206;BME280;57593;55.896;37.396;2022-12-07T00:45:17;100491.31;;;-5.74;59.69
70206;BME280;57593;55.896;37.396;2022-12-07T00:45:48;100486.75;;;-5.79;59.45
70206;BME280;57593;55.896;37.396;2022-12-07T00:46:20;100497.03;;;-5.79;59.32
70206;BME280;57593;55.896;37.396;2022-12-07T00:46:50;100495.88;;;-5.76;59.45
70206;BME280;57593;55.896;37.396;2022-12-07T00:47:21;100488.16;;;-5.76;59.78
70206;BME280;57593;55.896;37.396;2022-12-07T00:47:52;100486.16;;;-5.81;59.23
70206;BME280;57593;55.896;37.396;2022-12-07T00:48:23;100479.22;;;-5.73;59.33
70206;BME280;57593;55.896;37.396;2022-12-07T00:48:54;100486.75;;;-5.79;59.51
70206;BME280;57593;55.896;37.396;2022-12-07T00:49:25;100481.03;;;-5.74;59.70
70206;BME280;57593;55.896;37.396;2022-12-07T00:49:56;100486.56;;;-5.70;59.51
70206;BME280;57593;55.896;37.396;2022-12-07T00:50:26;100484.19;;;-5.72;59.56
70206;BME280;57593;55.896;37.396;2022-12-07T00:50:57;100490.72;;;-5.76;59.49
70206;BME280;57593;55.896;37.396;2022-12-07T00:51:28;100489.31;;;-5.79;59.82
70206;BME280;57593;55.896;37.396;2022-12-07T00:51:59;100486.75;;;-5.79;59.87
70206;BME280;57593;55.896;37.396;2022-12-07T00:52:29;100490.91;;;-5.78;59.72
70206;BME280;57593;55.896;37.396;2022-12-07T00:53:00;100488.53;;;-5.79;60.00
70206;BME280;57593;55.896;37.396;2022-12-07T00:53:31;100493.50;;;-5.78;60.33
70206;BME280;57593;55.896;37.396;2022-12-07T00:54:03;100486.94;;;-5.73;60.52
70206;BME280;57593;55.896;37.396;2022-12-07T00:54:34;100491.91;;;-5.72;60.69
70206;BME280;57593;55.896;37.396;2022-12-07T00:55:05;100486.94;;;-5.73;60.40
70206;BME280;57593;55.896;37.396;2022-12-07T00:55:36;100482.63;;;-5.66;60.22
70206;BME280;57593;55.896;37.396;2022-12-07T00:56:15;100495.28;;;-5.71;60.24
70206;BME280;57593;55.896;37.396;2022-12-07T00:56:46;100488.75;;;-5.74;60.46
70206;BME280;57593;55.896;37.396;2022-12-07T00:57:17;100489.13;;;-5.77;60.70
70206;BME280;57593;55.896;37.396;2022-12-07T00:57:47;100477.25;;;-5.78;60.79
70206;BME280;57593;55.896;37.396;2022-12-07T00:58:19;100486.16;;;-5.87;61.04
70206;BME280;57593;55.896;37.396;2022-12-07T00:59:01;100482.94;;;-5.89;61.77
70206;BME280;57593;55.896;37.396;2022-12-07T00:59:32;100492.06;;;-5.87;61.82
70206;BME280;57593;55.896;37.396;2022-12-07T01:00:02;100494.25;;;-5.84;61.89
70206;BME280;57593;55.896;37.396;2022-12-07T01:00:35;100493.66;;;-5.86;61.51
70206;BME280;57593;55.896;37.396;2022-12-07T01:01:08;100491.28;;;-5.87;61.83
70206;BME280;57593;55.896;37.396;2022-12-07T01:01:39;100483.38;;;-5.79;61.98
70206;BME280;57593;55.896;37.396;2022-12-07T01:02:10;100482.75;;;-5.88;61.92
70206;BME280;57593;55.896;37.396;2022-12-07T01:02:40;100488.53;;;-5.86;61.81
70206;BME280;57593;55.896;37.396;2022-12-07T01:03:13;100481.16;;;-5.96;61.88
70206;BME280;57593;55.896;37.396;2022-12-07T01:03:44;100480.16;;;-5.94;61.70
70206;BME280;57593;55.896;37.396;2022-12-07T01:04:14;100484.56;;;-5.88;61.76
70206;BME280;57593;55.896;37.396;2022-12-07T01:04:45;100486.72;;;-5.92;61.81
70206;BME280;57593;55.896;37.396;2022-12-07T01:05:16;100489.88;;;-5.90;62.02
70206;BME280;57593;55.896;37.396;2022-12-07T01:05:54;100490.66;;;-5.89;61.92
70206;BME280;57593;55.896;37.396;2022-12-07T01:06:25;100483.94;;;-6.04;61.56
70206;BME280;57593;55.896;37.396;2022-12-07T01:06:56;100489.84;;;-6.10;61.92
70206;BME280;57593;55.896;37.396;2022-12-07T01:07:26;100486.09;;;-6.07;62.24
70206;BME280;57593;55.896;37.396;2022-12-07T01:07:57;100494.00;;;-6.09;62.65
70206;BME280;57593;55.896;37.396;2022-12-07T01:08:28;100491.84;;;-6.05;63.03
70206;BME280;57593;55.896;37.396;2022-12-07T01:08:59;100481.34;;;-6.10;62.37
70206;BME280;57593;55.896;37.396;2022-12-07T01:09:30;100483.47;;;-6.14;62.33
70206;BME280;57593;55.896;37.396;2022-12-07T01:10:01;100484.69;;;-6.10;62.26
70206;BME280;57593;55.896;37.396;2022-12-07T01:10:32;100491.06;;;-6.06;62.23
70206;BME280;57593;55.896;37.396;2022-12-07T01:11:05;100486.72;;;-5.99;62.42
70206;BME280;57593;55.896;37.396;2022-12-07T01:11:37;100479.38;;;-6.02;62.51
70206;BME280;57593;55.896;37.396;2022-12-07T01:12:07;100476.00;;;-6.09;62.22
70206;BME280;57593;55.896;37.396;2022-12-07T01:12:38;100478.97;;;-6.05;62.29
70206;BME280;57593;55.896;37.396;2022-12-07T01:13:09;100475.63;;;-5.99;62.70
70206;BME280;57593;55.896;37.396;2022-12-07T01:13:40;100478.56;;;-5.96;62.90
70206;BME280;57593;55.896;37.396;2022-12-07T01:14:11;100492.44;;;-6.03;62.58
70206;BME280;57593;55.896;37.396;2022-12-07T01:14:42;100485.34;;;-6.01;62.46
70206;BME280;57593;55.896;37.396;2022-12-07T01:15:13;100493.22;;;-5.96;62.62
70206;BME280;57593;55.896;37.396;2022-12-07T01:15:44;100483.53;;;-5.94;62.19
70206;BME280;57593;55.896;37.396;2022-12-07T01:16:15;100479.19;;;-6.00;62.30
70206;BME280;57593;55.896;37.396;2022-12-07T01:16:46;100475.75;;;-6.14;62.57
70206;BME280;57593;55.896;37.396;2022-12-07T01:17:17;100473.25;;;-6.07;62.61
70206;BME280;57593;55.896;37.396;2022-12-07T01:17:48;100490.06;;;-6.05;62.47
70206;BME280;57593;55.896;37.396;2022-12-07T01:18:18;100481.56;;;-6.05;62.13
70206;BME280;57593;55.896;37.396;2022-12-07T01:18:50;100476.22;;;-6.04;62.25
70206;BME280;57593;55.896;37.396;2022-12-07T01:19:21;100473.06;;;-5.99;62.19
70206;BME280;57593;55.896;37.396;2022-12-07T01:19:52;100469.47;;;-6.05;61.99
70206;BME280;57593;55.896;37.396;2022-12-07T01:20:22;100472.03;;;-6.11;61.73
70206;BME280;57593;55.896;37.396;2022-12-07T01:21:05;100479.16;;;-6.07;61.94
70206;BME280;57593;55.896;37.396;2022-12-07T01:21:37;100477.19;;;-6.05;61.86
70206;BME280;57593;55.896;37.396;2022-12-07T01:22:08;100481.34;;;-6.10;61.73
70206;BME280;57593;55.896;37.396;2022-12-07T01:22:40;100473.84;;;-6.05;61.70
70206;BME280;57593;55.896;37.396;2022-12-07T01:23:10;100484.88;;;-6.18;61.57
70206;BME280;57593;55.896;37.396;2022-12-07T01:23:41;100477.75;;;-6.16;61.79
70206;BME280;57593;55.896;37.396;2022-12-07T01:24:12;100485.47;;;-6.16;61.95
70206;BME280;57593;55.896;37.396;2022-12-07T01:24:43;100480.09;;;-6.21;62.44
70206;BME280;57593;55.896;37.396;2022-12-07T01:25:13;100481.28;;;-6.17;62.72
70206;BME280;57593;55.896;37.396;2022-12-07T01:25:44;100482.88;;;-6.16;62.35
70206;BME280;57593;55.896;37.396;2022-12-07T01:26:19;100477.72;;;-6.23;62.60
70206;BME280;57593;55.896;37.396;2022-12-07T01:26:49;100476.13;;;-6.24;62.47
70206;BME280;57593;55.896;37.396;2022-12-07T01:27:20;100475.38;;;-6.18;62.57
70206;BME280;57593;55.896;37.396;2022-12-07T01:27:51;100478.91;;;-6.19;61.89
70206;BME280;57593;55.896;37.396;2022-12-07T01:28:21;100481.28;;;-6.24;61.99
70206;BME280;57593;55.896;37.396;2022-12-07T01:28:52;100472.34;;;-6.28;61.45
70206;BME280;57593;55.896;37.396;2022-12-07T01:29:25;100485.84;;;-6.19;61.32
70206;BME280;57593;55.896;37.396;2022-12-07T01:29:55;100475.75;;;-6.21;61.09
70206;BME280;57593;55.896;37.396;2022-12-07T01:30:26;100475.16;;;-6.16;60.89
70206;BME280;57593;55.896;37.396;2022-12-07T01:31:31;100477.38;;;-6.13;61.05
70206;BME280;57593;55.896;37.396;2022-12-07T01:32:02;100471.63;;;-6.15;61.34
70206;BME280;57593;55.896;37.396;2022-12-07T01:32:33;100465.09;;;-6.11;61.37
70206;BME280;57593;55.896;37.396;2022-12-07T01:33:04;100476.41;;;-6.05;61.41
70206;BME280;57593;55.896;37.396;2022-12-07T01:33:36;100476.59;;;-6.07;61.20
70206;BME280;57593;55.896;37.396;2022-12-07T01:34:08;100475.97;;;-6.16;61.07
70206;BME280;57593;55.896;37.396;2022-12-07T01:34:38;100472.38;;;-6.21;61.13
70206;BME280;57593;55.896;37.396;2022-12-07T01:35:09;100472.59;;;-6.16;61.46
70206;BME280;57593;55.896;37.396;2022-12-07T01:35:40;100473.38;;;-6.16;61.36
70206;BME280;57593;55.896;37.396;2022-12-07T01:36:16;100477.75;;;-6.16;61.68
70206;BME280;57593;55.896;37.396;2022-12-07T01:36:47;100456.38;;;-6.17;61.76
70206;BME280;57593;55.896;37.396;2022-12-07T01:37:17;100463.28;;;-6.17;61.71
70206;BME280;57593;55.896;37.396;2022-12-07T01:37:48;100467.06;;;-6.20;61.50
70206;BME280;57593;55.896;37.396;2022-12-07T01:38:19;100466.44;;;-6.22;62.24
70206;BME280;57593;55.896;37.396;2022-12-07T01:38:53;100471.00;;;-6.24;62.85
70206;BME280;57593;55.896;37.396;2022-12-07T01:39:26;100463.47;;;-6.25;63.19
70206;BME280;57593;55.896;37.396;2022-12-07T01:39:57;100454.59;;;-6.23;62.77
70206;BME280;57593;55.896;37.396;2022-12-07T01:40:27;100470.16;;;-6.31;62.56
70206;BME280;57593;55.896;37.396;2022-12-07T01:41:00;100460.28;;;-6.34;62.56
70206;BME280;57593;55.896;37.396;2022-12-07T01:41:33;100463.41;;;-6.39;62.73
70206;BME280;57593;55.896;37.396;2022-12-07T01:42:04;100467.41;;;-6.29;63.10
70206;BME280;57593;55.896;37.396;2022-12-07T01:42:35;100458.47;;;-6.40;62.88
70206;BME280;57593;55.896;37.396;2022-12-07T01:43:18;100477.63;;;-6.43;62.73
70206;BME280;57593;55.896;37.396;2022-12-07T01:44:13;100467.00;;;-6.33;63.23
70206;BME280;57593;55.896;37.396;2022-12-07T01:45:48;100471.50;;;-6.42;63.11
70206;BME280;57593;55.896;37.396;2022-12-07T01:46:19;100467.34;;;-6.43;63.18
70206;BME280;57593;55.896;37.396;2022-12-07T01:46:54;100466.56;;;-6.43;63.38
70206;BME280;57593;55.896;37.396;2022-12-07T01:47:26;100465.94;;;-6.45;63.81
70206;BME280;57593;55.896;37.396;2022-12-07T01:47:57;100472.69;;;-6.38;64.00
70206;BME280;57593;55.896;37.396;2022-12-07T01:48:34;100470.13;;;-6.38;64.25
70206;BME280;57593;55.896;37.396;2022-12-07T01:49:11;100472.31;;;-6.41;64.31
70206;BME280;57593;55.896;37.396;2022-12-07T01:49:47;100466.97;;;-6.40;64.51
70206;BME280;57593;55.896;37.396;2022-12-07T01:50:20;100473.75;;;-6.25;64.54
70206;BME280;57593;55.896;37.396;2022-12-07T01:50:53;100462.41;;;-6.38;64.99
70206;BME280;57593;55.896;37.396;2022-12-07T01:51:26;100465.41;;;-6.34;64.72
70206;BME280;57593;55.896;37.396;2022-12-07T01:52:18;100470.56;;;-6.34;64.14
70206;BME280;57593;55.896;37.396;2022-12-07T01:52:54;100466.59;;;-6.37;63.99
70206;BME280;57593;55.896;37.396;2022-12-07T01:53:28;100464.44;;;-6.26;64.24
70206;BME280;57593;55.896;37.396;2022-12-07T01:54:00;100465.00;;;-6.31;64.09
70206;BME280;57593;55.896;37.396;2022-12-07T01:54:32;100465.00;;;-6.31;64.12
70206;BME280;57593;55.896;37.396;2022-12-07T01:55:07;100468.78;;;-6.34;64.38
70206;BME280;57593;55.896;37.396;2022-12-07T01:55:41;100468.38;;;-6.37;64.35
70206;BME280;57593;55.896;37.396;2022-12-07T01:56:17;100462.22;;;-6.36;64.38
70206;BME280;57593;55.896;37.396;2022-12-07T01:56:52;100456.47;;;-6.45;64.88
70206;BME280;57593;55.896;37.396;2022-12-07T01:57:24;100460.03;;;-6.39;65.02
70206;BME280;57593;55.896;37.396;2022-12-07T01:57:55;100464.00;;;-6.37;64.57
70206;BME280;57593;55.896;37.396;2022-12-07T01:58:26;100457.06;;;-6.43;64.77
70206;BME280;57593;55.896;37.396;2022-12-07T01:58:59;100448.00;;;-6.39;64.58
70206;BME280;57593;55.896;37.396;2022-12-07T01:59:30;100458.66;;;-6.42;64.59
70206;BME280;57593;55.896;37.396;2022-12-07T02:00:02;100459.81;;;-6.44;64.15
70206;BME280;57593;55.896;37.396;2022-12-07T02:00:43;100453.13;;;-6.39;64.28
70206;BME280;57593;55.896;37.396;2022-12-07T02:01:13;100460.66;;;-6.37;64.17
70206;BME280;57593;55.896;37.396;2022-12-07T02:01:44;100448.78;;;-6.38;64.29
70206;BME280;57593;55.896;37.396;2022-12-07T02:02:28;100456.50;;;-6.32;64.15
70206;BME280;57593;55.896;37.396;2022-12-07T02:03:22;100450.75;;;-6.40;64.11
70206;BME280;57593;55.896;37.396;2022-12-07T02:03:54;100445.56;;;-6.47;63.95
70206;BME280;57593;55.896;37.396;2022-12-07T02:04:26;100447.53;;;-6.49;64.43
70206;BME280;57593;55.896;37.396;2022-12-07T02:04:58;100447.44;;;-6.34;64.91
70206;BME280;57593;55.896;37.396;2022-12-07T02:05:30;100453.34;;;-6.40;65.07
70206;BME280;57593;55.896;37.396;2022-12-07T02:06:02;100453.91;;;-6.38;65.75
70206;BME280;57593;55.896;37.396;2022-12-07T02:06:33;100454.91;;;-6.39;65.97
70206;BME280;57593;55.896;37.396;2022-12-07T02:07:05;100460.41;;;-6.49;65.96
70206;BME280;57593;55.896;37.396;2022-12-07T02:07:37;100459.06;;;-6.38;66.17
70206;BME280;57593;55.896;37.396;2022-12-07T02:08:10;100454.91;;;-6.39;65.61
70206;BME280;57593;55.896;37.396;2022-12-07T02:08:42;100457.06;;;-6.43;64.89
70206;BME280;57593;55.896;37.396;2022-12-07T02:09:13;100448.31;;;-6.48;64.56
70206;BME280;57593;55.896;37.396;2022-12-07T02:09:44;100458.22;;;-6.45;64.41
70206;BME280;57593;55.896;37.396;2022-12-07T02:10:26;100456.66;;;-6.46;64.36
70206;BME280;57593;55.896;37.396;2022-12-07T02:10:57;100455.25;;;-6.49;64.46
70206;BME280;57593;55.896;37.396;2022-12-07T02:11:29;100452.88;;;-6.51;64.26
70206;BME280;57593;55.896;37.396;2022-12-07T02:12:00;100451.53;;;-6.46;64.61
70206;BME280;57593;55.896;37.396;2022-12-07T02:12:31;100454.50;;;-6.43;64.58
70206;BME280;57593;55.896;37.396;2022-12-07T02:13:08;100454.88;;;-6.46;64.52
70206;BME280;57593;55.896;37.396;2022-12-07T02:13:40;100452.47;;;-6.54;64.40
70206;BME280;57593;55.896;37.396;2022-12-07T02:14:12;100454.22;;;-6.55;64.70
70206;BME280;57593;55.896;37.396;2022-12-07T02:14:43;100458.03;;;-6.44;64.90
70206;BME280;57593;55.896;37.396;2022-12-07T02:15:14;100458.59;;;-6.48;64.91
70206;BME280;57593;55.896;37.396;2022-12-07T02:18:22;100458.78;;;-6.50;64.84
70206;BME280;57593;55.896;37.396;2022-12-07T02:19:03;100447.94;;;-6.45;65.08
70206;BME280;57593;55.896;37.396;2022-12-07T02:21:53;100460.19;;;-6.54;65.29
70206;BME280;57593;55.896;37.396;2022-12-07T02:23:07;100459.59;;;-6.49;65.27
70206;BME280;57593;55.896;37.396;2022-12-07T02:25:00;100445.91;;;-6.57;64.19
70206;BME280;57593;55.896;37.396;2022-12-07T02:26:02;100456.94;;;-6.70;63.88
70206;BME280;57593;55.896;37.396;2022-12-07T02:28:19;100446.84;;;-6.71;64.82
70206;BME280;57593;55.896;37.396;2022-12-07T02:30:33;100451.06;;;-6.57;64.78
70206;BME280;57593;55.896;37.396;2022-12-07T02:31:19;100438.63;;;-6.53;65.03
70206;BME280;57593;55.896;37.396;2022-12-07T02:32:18;100451.66;;;-6.55;64.96
70206;BME280;57593;55.896;37.396;2022-12-07T02:33:05;100450.13;;;-6.49;65.31
70206;BME280;57593;55.896;37.396;2022-12-07T02:33:45;100449.31;;;-6.49;65.35
70206;BME280;57593;55.896;37.396;2022-12-07T02:36:28;100449.09;;;-6.55;65.66
70206;BME280;57593;55.896;37.396;2022-12-07T02:37:04;100452.84;;;-6.57;65.26
70206;BME280;57593;55.896;37.396;2022-12-07T02:37:48;100442.56;;;-6.57;65.07
70206;BME280;57593;55.896;37.396;2022-12-07T02:38:42;100435.25;;;-6.60;65.73
70206;BME280;57593;55.896;37.396;2022-12-07T02:39:17;100439.19;;;-6.58;65.99
70206;BME280;57593;55.896;37.396;2022-12-07T02:40:00;100441.38;;;-6.55;66.74
70206;BME280;57593;55.896;37.396;2022-12-07T02:41:33;100442.19;;;-6.54;67.35
70206;BME280;57593;55.896;37.396;2022-12-07T02:42:25;100440.31;;;-6.67;66.85
70206;BME280;57593;55.896;37.396;2022-12-07T02:43:04;100445.91;;;-6.57;67.05
70206;BME280;57593;55.896;37.396;2022-12-07T02:43:42;100437.13;;;-6.76;67.56
70206;BME280;57593;55.896;37.396;2022-12-07T02:44:19;100443.53;;;-6.58;67.73
70206;BME280;57593;55.896;37.396;2022-12-07T02:44:51;100446.69;;;-6.63;67.44
70206;BME280;57593;55.896;37.396;2022-12-07T02:45:25;100441.34;;;-6.61;66.84
70206;BME280;57593;55.896;37.396;2022-12-07T02:46:06;100434.41;;;-6.68;67.20
70206;BME280;57593;55.896;37.396;2022-12-07T02:46:44;100443.91;;;-6.61;66.86
70206;BME280;57593;55.896;37.396;2022-12-07T02:47:17;100442.75;;;-6.59;67.12
70206;BME280;57593;55.896;37.396;2022-12-07T02:47:53;100448.50;;;-6.57;67.01
70206;BME280;57593;55.896;37.396;2022-12-07T02:48:27;100443.56;;;-6.52;67.39
70206;BME280;57593;55.896;37.396;2022-12-07T02:48:58;100443.56;;;-6.52;67.36
70206;BME280;57593;55.896;37.396;2022-12-07T02:49:32;100438.22;;;-6.57;67.47
70206;BME280;57593;55.896;37.396;2022-12-07T02:50:05;100437.84;;;-6.54;67.35
70206;BME280;57593;55.896;37.396;2022-12-07T02:50:36;100448.31;;;-6.55;67.46
70206;BME280;57593;55.896;37.396;2022-12-07T02:51:07;100449.13;;;-6.48;67.51
70206;BME280;57593;55.896;37.396;2022-12-07T02:51:43;100448.50;;;-6.50;67.45
70206;BME280;57593;55.896;37.396;2022-12-07T02:52:14;100451.09;;;-6.50;67.65
70206;BME280;57593;55.896;37.396;2022-12-07T02:52:44;100445.16;;;-6.51;67.81
70206;BME280;57593;55.896;37.396;2022-12-07T02:53:36;100452.72;;;-6.42;67.54
70206;BME280;57593;55.896;37.396;2022-12-07T02:54:18;100453.91;;;-6.45;67.49
70206;BME280;57593;55.896;37.396;2022-12-07T02:54:49;100453.84;;;-6.52;68.06
70206;BME280;57593;55.896;37.396;2022-12-07T02:55:23;100445.94;;;-6.50;68.29
70206;BME280;57593;55.896;37.396;2022-12-07T02:55:58;100447.13;;;-6.53;68.08
70206;BME280;57593;55.896;37.396;2022-12-07T02:57:54;100450.28;;;-6.57;68.19
70206;BME280;57593;55.896;37.396;2022-12-07T02:59:29;100447.72;;;-6.57;68.71
70206;BME280;57593;55.896;37.396;2022-12-07T03:00:07;100454.19;;;-6.61;68.37
70206;BME280;57593;55.896;37.396;2022-12-07T03:00:52;100448.88;;;-6.60;68.42
70206;BME280;57593;55.896;37.396;2022-12-07T03:02:29;100459.34;;;-6.61;68.33
70206;BME280;57593;55.896;37.396;2022-12-07T03:03:09;100447.81;;;-6.72;68.98
70206;BME280;57593;55.896;37.396;2022-12-07T03:03:46;100443.88;;;-6.68;68.89
70206;BME280;57593;55.896;37.396;2022-12-07T03:04:38;100442.50;;;-6.64;69.07
70206;BME280;57593;55.896;37.396;2022-12-07T03:05:25;100442.00;;;-6.81;68.97
70206;BME280;57593;55.896;37.396;2022-12-07T03:06:42;100449.41;;;-6.71;69.72
70206;BME280;57593;55.896;37.396;2022-12-07T03:08:50;100440.94;;;-6.65;69.16
70206;BME280;57593;55.896;37.396;2022-12-07T03:09:51;100439.69;;;-6.76;69.06
70206;BME280;57593;55.896;37.396;2022-12-07T03:11:02;100447.28;;;-6.61;69.06
70206;BME280;57593;55.896;37.396;2022-12-07T03:11:47;100445.50;;;-6.60;68.47
70206;BME280;57593;55.896;37.396;2022-12-07T03:12:26;100441.69;;;-6.71;68.91
70206;BME280;57593;55.896;37.396;2022-12-07T03:13:12;100447.59;;;-6.77;69.79
70206;BME280;57593;55.896;37.396;2022-12-07T03:13:56;100441.44;;;-6.76;69.97